createdAt,value
2022-07-30T00:01:53.265Z,20.00
2022-07-30T00:04:20.581Z,20.00
2022-07-30T00:06:47.559Z,20.10
2022-07-30T00:09:14.581Z,20.10
2022-07-30T00:11:41.797Z,20.10
2022-07-30T00:14:08.955Z,20.10
2022-07-30T00:16:36.335Z,20.10
2022-07-30T00:19:03.852Z,20.10
2022-07-30T00:21:38.831Z,20.10
2022-07-30T00:24:08.830Z,20.20
2022-07-30T00:26:35.917Z,20.20
2022-07-30T00:29:03.429Z,20.20
2022-07-30T00:31:30.412Z,20.20
2022-07-30T00:33:57.521Z,20.20
2022-07-30T00:36:24.725Z,20.20
2022-07-30T00:38:51.747Z,20.30
2022-07-30T00:41:18.772Z,20.30
2022-07-30T00:43:45.726Z,20.30
2022-07-30T00:46:15.114Z,20.30
2022-07-30T00:48:42.614Z,20.30
2022-07-30T00:51:10.683Z,20.30
2022-07-30T00:53:38.298Z,20.30
2022-07-30T00:56:05.858Z,20.20
2022-07-30T00:58:33.054Z,20.20
2022-07-30T01:01:00.097Z,20.20
2022-07-30T01:03:27.220Z,20.10
2022-07-30T01:05:54.236Z,20.10
2022-07-30T01:08:21.198Z,20.10
2022-07-30T01:10:48.239Z,20.10
2022-07-30T01:13:15.318Z,20.10
2022-07-30T01:15:42.946Z,20.10
2022-07-30T01:18:12.953Z,20.10
2022-07-30T01:21:02.444Z,20.10
2022-07-30T01:23:43.393Z,20.10
2022-07-30T01:26:14.582Z,20.10
2022-07-30T01:28:45.471Z,20.10
2022-07-30T01:31:15.160Z,20.10
2022-07-30T01:33:45.618Z,20.10
2022-07-30T01:36:15.631Z,20.10
2022-07-30T01:38:45.497Z,20.10
2022-07-30T01:41:15.460Z,20.10
2022-07-30T01:43:45.334Z,20.10
2022-07-30T01:46:14.206Z,20.10
2022-07-30T01:48:44.310Z,20.10
2022-07-30T01:51:13.912Z,20.00
2022-07-30T01:53:43.044Z,20.00
2022-07-30T01:56:16.604Z,20.00
2022-07-30T01:58:46.738Z,20.00
2022-07-30T02:01:14.212Z,20.00
2022-07-30T02:03:41.490Z,20.00
2022-07-30T02:06:21.776Z,19.90
2022-07-30T02:08:58.272Z,19.90
2022-07-30T02:11:44.277Z,19.90
2022-07-30T02:14:29.164Z,19.90
2022-07-30T02:16:59.313Z,19.90
2022-07-30T02:19:36.165Z,19.90
2022-07-30T02:22:11.272Z,19.90
2022-07-30T02:24:43.250Z,19.80
2022-07-30T02:27:18.270Z,19.80
2022-07-30T02:29:47.840Z,19.80
2022-07-30T02:32:20.302Z,19.80
2022-07-30T02:34:50.279Z,19.80
2022-07-30T02:37:42.895Z,19.80
2022-07-30T02:40:14.408Z,19.80
2022-07-30T02:42:44.515Z,19.80
2022-07-30T02:45:13.394Z,19.80
2022-07-30T02:47:42.770Z,19.70
2022-07-30T02:50:10.891Z,19.70
2022-07-30T02:52:40.594Z,19.70
2022-07-30T02:55:11.021Z,19.70
2022-07-30T02:57:43.313Z,19.70
2022-07-30T03:00:12.310Z,19.70
2022-07-30T03:02:43.509Z,19.70
2022-07-30T03:05:14.146Z,19.70
2022-07-30T03:07:42.247Z,19.70
2022-07-30T03:10:11.581Z,19.70
2022-07-30T03:12:42.730Z,19.70
2022-07-30T03:15:10.349Z,19.70
2022-07-30T03:17:42.270Z,19.70
2022-07-30T03:20:12.129Z,19.70
2022-07-30T03:22:46.904Z,19.70
2022-07-30T03:25:16.969Z,19.70
2022-07-30T03:27:45.354Z,19.70
2022-07-30T03:30:13.503Z,19.60
2022-07-30T03:32:42.865Z,19.70
2022-07-30T03:35:17.041Z,19.70
2022-07-30T03:37:45.183Z,19.60
2022-07-30T03:40:14.166Z,19.70
2022-07-30T03:42:41.721Z,19.70
2022-07-30T03:45:09.767Z,19.70
2022-07-30T03:47:39.627Z,19.70
2022-07-30T03:50:07.361Z,19.70
2022-07-30T03:52:37.143Z,19.80
2022-07-30T03:55:10.357Z,19.80
2022-07-30T03:57:38.363Z,19.80
2022-07-30T04:00:08.450Z,19.80
2022-07-30T04:02:46.612Z,19.80
2022-07-30T04:05:14.911Z,19.80
2022-07-30T04:07:44.767Z,19.80
2022-07-30T04:10:13.521Z,19.90
2022-07-30T04:12:40.630Z,19.80
2022-07-30T04:16:05.715Z,19.80
2022-07-30T04:18:01.580Z,19.80
2022-07-30T04:20:34.754Z,19.80
2022-07-30T04:23:02.978Z,19.80
2022-07-30T04:25:30.990Z,19.80
2022-07-30T04:28:03.693Z,19.80
2022-07-30T04:30:35.119Z,19.80
2022-07-30T04:33:04.505Z,19.80
2022-07-30T04:35:51.520Z,19.80
2022-07-30T04:38:20.291Z,19.80
2022-07-30T04:40:48.504Z,19.80
2022-07-30T04:43:16.215Z,19.90
2022-07-30T04:45:43.415Z,19.90
2022-07-30T04:48:10.498Z,19.90
2022-07-30T04:50:41.607Z,19.90
2022-07-30T04:53:09.920Z,20.00
2022-07-30T04:55:42.162Z,20.00
2022-07-30T04:58:12.208Z,20.00
2022-07-30T05:00:41.554Z,20.00
2022-07-30T05:03:11.996Z,20.00
2022-07-30T05:05:40.896Z,20.00
2022-07-30T05:08:08.132Z,20.00
2022-07-30T05:10:35.172Z,20.00
2022-07-30T05:13:02.368Z,20.00
2022-07-30T05:15:36.241Z,20.00
2022-07-30T05:18:04.730Z,19.90
2022-07-30T05:20:31.714Z,20.00
2022-07-30T05:22:58.875Z,20.00
2022-07-30T05:25:26.223Z,20.00
2022-07-30T05:27:53.310Z,20.10
2022-07-30T05:30:27.368Z,20.10
2022-07-30T05:32:56.096Z,20.10
2022-07-30T05:35:23.498Z,20.00
2022-07-30T05:37:50.465Z,20.00
2022-07-30T05:40:17.484Z,20.00
2022-07-30T05:42:45.060Z,20.00
2022-07-30T05:45:12.088Z,19.90
2022-07-30T05:47:39.079Z,19.90
2022-07-30T05:50:06.494Z,19.90
2022-07-30T05:52:33.841Z,19.90
2022-07-30T05:55:01.070Z,19.80
2022-07-30T05:57:28.069Z,19.80
2022-07-30T05:59:55.076Z,19.80
2022-07-30T06:02:24.277Z,19.80
2022-07-30T06:04:52.522Z,19.80
2022-07-30T06:07:19.649Z,19.70
2022-07-30T06:09:47.221Z,19.70
2022-07-30T06:12:14.674Z,19.70
2022-07-30T06:14:41.745Z,19.60
2022-07-30T06:17:08.739Z,19.60
2022-07-30T06:19:35.842Z,19.60
2022-07-30T06:22:06.881Z,19.60
2022-07-30T06:24:34.601Z,19.60
2022-07-30T06:27:02.151Z,19.60
2022-07-30T06:29:29.508Z,19.60
2022-07-30T06:31:56.513Z,19.60
2022-07-30T06:34:23.661Z,19.60
2022-07-30T06:36:51.417Z,19.60
2022-07-30T06:39:56.407Z,19.60
2022-07-30T06:42:05.580Z,19.60
2022-07-30T06:44:32.610Z,19.60
2022-07-30T06:47:05.290Z,19.70
2022-07-30T06:49:35.851Z,19.60
2022-07-30T06:52:02.992Z,19.70
2022-07-30T06:54:30.222Z,19.70
2022-07-30T06:56:57.642Z,19.80
2022-07-30T06:59:24.790Z,19.80
2022-07-30T07:01:54.536Z,19.90
2022-07-30T07:04:21.882Z,19.90
2022-07-30T07:06:48.854Z,20.00
2022-07-30T07:09:15.832Z,20.10
2022-07-30T07:11:42.845Z,20.10
2022-07-30T07:14:09.789Z,20.10
2022-07-30T07:16:36.874Z,20.20
2022-07-30T07:19:04.093Z,20.20
2022-07-30T07:21:31.198Z,20.30
2022-07-30T07:24:00.649Z,20.30
2022-07-30T07:26:27.648Z,20.30
2022-07-30T07:28:54.617Z,20.40
2022-07-30T07:32:02.582Z,20.40
2022-07-30T07:34:08.718Z,20.50
2022-07-30T07:36:36.742Z,20.50
2022-07-30T07:39:09.803Z,20.50
2022-07-30T07:41:48.464Z,20.60
2022-07-30T07:44:16.404Z,20.50
2022-07-30T07:46:43.511Z,20.60
2022-07-30T07:49:10.675Z,20.60
2022-07-30T07:51:47.245Z,20.70
2022-07-30T07:54:22.023Z,20.80
2022-07-30T07:56:57.458Z,20.90
2022-07-30T07:59:27.091Z,21.00
2022-07-30T08:02:08.097Z,21.00
2022-07-30T08:04:35.463Z,21.00
2022-07-30T08:07:03.040Z,21.10
2022-07-30T08:09:43.912Z,21.10
2022-07-30T08:12:12.528Z,21.20
2022-07-30T08:14:39.883Z,21.20
2022-07-30T08:17:07.915Z,21.30
2022-07-30T08:19:35.416Z,21.30
2022-07-30T08:22:02.417Z,21.40
2022-07-30T08:24:29.351Z,21.40
2022-07-30T08:26:56.339Z,21.50
2022-07-30T08:29:23.318Z,21.60
2022-07-30T08:31:50.393Z,21.70
2022-07-30T08:34:18.267Z,21.80
2022-07-30T08:36:45.270Z,21.90
2022-07-30T08:39:12.347Z,22.00
2022-07-30T08:41:41.807Z,22.00
2022-07-30T08:44:12.767Z,22.10
2022-07-30T08:46:46.282Z,22.10
2022-07-30T08:49:16.074Z,22.20
2022-07-30T08:51:43.821Z,22.20
2022-07-30T08:54:11.163Z,22.20
2022-07-30T08:56:38.644Z,22.10
2022-07-30T08:59:05.796Z,22.10
2022-07-30T09:01:32.769Z,22.10
2022-07-30T09:03:59.938Z,22.10
2022-07-30T09:06:27.543Z,22.10
2022-07-30T09:08:55.025Z,22.20
2022-07-30T09:11:23.118Z,22.30
2022-07-30T09:13:51.263Z,22.30
2022-07-30T09:16:23.766Z,22.40
2022-07-30T09:18:51.884Z,22.40
2022-07-30T09:21:26.178Z,22.50
2022-07-30T09:24:05.422Z,22.60
2022-07-30T09:26:51.758Z,22.60
2022-07-30T09:29:23.688Z,22.60
2022-07-30T09:32:05.858Z,22.60
2022-07-30T09:34:38.164Z,22.50
2022-07-30T09:37:19.572Z,22.50
2022-07-30T09:39:59.264Z,22.50
2022-07-30T09:42:28.963Z,22.50
2022-07-30T09:45:14.297Z,22.50
2022-07-30T09:47:48.487Z,22.50
2022-07-30T09:50:17.905Z,22.50
2022-07-30T09:53:12.072Z,22.60
2022-07-30T09:55:41.961Z,22.70
2022-07-30T09:58:12.923Z,22.80
2022-07-30T10:00:58.555Z,22.80
2022-07-30T10:03:38.485Z,22.70
2022-07-30T10:06:11.601Z,22.70
2022-07-30T10:08:52.881Z,22.70
2022-07-30T10:11:26.770Z,22.80
2022-07-30T10:13:59.923Z,23.00
2022-07-30T10:16:29.496Z,23.10
2022-07-30T10:19:00.284Z,23.20
2022-07-30T10:21:28.648Z,23.30
2022-07-30T10:24:00.315Z,23.40
2022-07-30T10:26:28.145Z,23.50
2022-07-30T10:28:55.857Z,23.50
2022-07-30T10:31:46.762Z,23.70
2022-07-30T10:34:11.972Z,23.70
2022-07-30T10:36:44.215Z,23.80
2022-07-30T10:39:17.617Z,23.80
2022-07-30T10:42:08.766Z,23.90
2022-07-30T10:44:47.532Z,23.90
2022-07-30T10:47:18.929Z,24.00
2022-07-30T10:50:12.800Z,24.10
2022-07-30T10:52:52.243Z,24.40
2022-07-30T10:55:37.181Z,24.50
2022-07-30T10:58:10.071Z,24.60
2022-07-30T11:00:52.299Z,24.70
2022-07-30T11:03:40.602Z,24.80
2022-07-30T11:06:24.590Z,24.90
2022-07-30T11:08:52.390Z,25.00
2022-07-30T11:11:59.026Z,25.20
2022-07-30T11:14:13.007Z,25.20
2022-07-30T11:16:40.261Z,25.20
2022-07-30T11:19:57.063Z,25.30
2022-07-30T11:22:29.751Z,25.20
2022-07-30T11:24:57.856Z,25.20
2022-07-30T11:27:38.941Z,25.20
2022-07-30T11:30:18.115Z,25.20
2022-07-30T11:32:50.354Z,25.30
2022-07-30T11:35:22.910Z,25.30
2022-07-30T11:38:09.142Z,25.40
2022-07-30T11:40:37.624Z,25.50
2022-07-30T11:43:18.584Z,25.50
2022-07-30T11:46:04.988Z,25.60
2022-07-30T11:48:32.995Z,25.80
2022-07-30T11:51:03.801Z,25.90
2022-07-30T11:53:31.488Z,25.90
2022-07-30T11:56:02.307Z,25.80
2022-07-30T11:58:39.989Z,25.80
2022-07-30T12:01:15.982Z,25.70
2022-07-30T12:03:45.050Z,25.70
2022-07-30T12:06:20.111Z,25.60
2022-07-30T12:08:58.274Z,25.60
2022-07-30T12:11:33.236Z,25.50
2022-07-30T12:14:02.286Z,25.60
2022-07-30T12:16:31.411Z,25.60
2022-07-30T12:19:09.684Z,25.60
2022-07-30T12:21:37.023Z,25.60
2022-07-30T12:24:10.163Z,25.40
2022-07-30T12:26:37.249Z,25.40
2022-07-30T12:29:07.487Z,25.40
2022-07-30T12:31:39.745Z,25.50
2022-07-30T12:34:26.494Z,25.50
2022-07-30T12:36:54.429Z,25.50
2022-07-30T12:39:27.012Z,25.60
2022-07-30T12:41:58.621Z,25.70
2022-07-30T12:44:44.732Z,25.80
2022-07-30T12:47:26.210Z,25.90
2022-07-30T12:49:58.541Z,25.90
2022-07-30T12:52:35.725Z,26.00
2022-07-30T12:55:05.073Z,25.90
2022-07-30T12:57:54.822Z,25.90
2022-07-30T13:00:23.202Z,25.70
2022-07-30T13:02:50.424Z,25.60
2022-07-30T13:05:17.942Z,25.60
2022-07-30T13:07:58.936Z,25.50
2022-07-30T13:10:30.713Z,25.40
2022-07-30T13:12:59.756Z,25.40
2022-07-30T13:15:26.879Z,25.40
2022-07-30T13:17:53.924Z,25.40
2022-07-30T13:20:21.230Z,25.50
2022-07-30T13:22:48.757Z,25.50
2022-07-30T13:25:15.844Z,25.50
2022-07-30T13:27:42.907Z,25.50
2022-07-30T13:30:10.557Z,25.50
2022-07-30T13:32:37.784Z,25.50
2022-07-30T13:35:05.360Z,25.50
2022-07-30T13:37:38.261Z,25.50
2022-07-30T13:40:07.306Z,25.50
2022-07-30T13:42:34.308Z,25.50
2022-07-30T13:45:01.368Z,25.50
2022-07-30T13:47:29.103Z,25.40
2022-07-30T13:49:56.090Z,25.20
2022-07-30T13:52:23.071Z,25.10
2022-07-30T13:54:52.428Z,25.00
2022-07-30T13:57:19.429Z,24.90
2022-07-30T13:59:46.602Z,24.90
2022-07-30T14:02:13.834Z,25.00
2022-07-30T14:04:40.805Z,25.10
2022-07-30T14:07:07.839Z,25.10
2022-07-30T14:09:43.347Z,25.20
2022-07-30T14:12:14.240Z,25.30
2022-07-30T14:14:41.391Z,25.30
2022-07-30T14:17:08.451Z,25.30
2022-07-30T14:19:35.485Z,25.40
2022-07-30T14:22:02.512Z,25.30
2022-07-30T14:24:29.533Z,25.40
2022-07-30T14:26:58.597Z,25.40
2022-07-30T14:29:27.441Z,25.50
2022-07-30T14:31:55.548Z,25.60
2022-07-30T14:34:23.102Z,25.70
2022-07-30T14:36:50.759Z,25.80
2022-07-30T14:39:17.794Z,25.90
2022-07-30T14:41:44.790Z,26.00
2022-07-30T14:44:13.814Z,26.10
2022-07-30T14:46:52.096Z,26.20
2022-07-30T14:49:20.725Z,26.30
2022-07-30T14:51:47.835Z,26.40
2022-07-30T14:54:14.854Z,26.30
2022-07-30T14:56:42.168Z,26.30
2022-07-30T14:59:09.309Z,26.50
2022-07-30T15:01:36.351Z,26.40
2022-07-30T15:04:04.122Z,26.40
2022-07-30T15:06:31.089Z,26.30
2022-07-30T15:08:58.195Z,26.10
2022-07-30T15:11:25.572Z,26.00
2022-07-30T15:13:52.697Z,25.90
2022-07-30T15:16:20.297Z,25.70
2022-07-30T15:18:47.350Z,25.50
2022-07-30T15:21:14.416Z,25.30
2022-07-30T15:23:41.740Z,25.20
2022-07-30T15:26:08.813Z,25.00
2022-07-30T15:28:35.743Z,24.80
2022-07-30T15:31:03.641Z,24.60
2022-07-30T15:33:30.803Z,24.40
2022-07-30T15:36:04.186Z,24.30
2022-07-30T15:38:31.179Z,24.10
2022-07-30T15:40:58.124Z,23.90
2022-07-30T15:43:25.146Z,23.70
2022-07-30T15:45:55.775Z,23.40
2022-07-30T15:48:26.519Z,23.20
2022-07-30T15:51:04.706Z,23.10
2022-07-30T15:53:33.016Z,23.20
2022-07-30T15:56:00.480Z,23.20
2022-07-30T15:58:27.989Z,23.20
2022-07-30T16:00:55.185Z,23.20
2022-07-30T16:03:22.612Z,23.10
2022-07-30T16:05:51.487Z,22.90
2022-07-30T16:08:40.060Z,22.70
2022-07-30T16:11:10.840Z,22.40
2022-07-30T16:13:38.523Z,21.20
2022-07-30T16:16:05.654Z,20.30
2022-07-30T16:18:32.779Z,19.60
2022-07-30T16:21:01.352Z,19.20
2022-07-30T16:23:36.520Z,19.10
2022-07-30T16:26:04.825Z,19.00
2022-07-30T16:28:32.359Z,19.10
2022-07-30T16:30:59.354Z,19.20
2022-07-30T16:33:26.433Z,19.20
2022-07-30T16:35:53.426Z,19.40
2022-07-30T16:38:20.902Z,19.50
2022-07-30T16:40:47.908Z,19.60
2022-07-30T16:43:16.263Z,19.70
2022-07-30T16:45:46.707Z,19.80
2022-07-30T16:48:14.027Z,19.90
2022-07-30T16:50:41.817Z,20.00
2022-07-30T16:53:13.758Z,20.20
2022-07-30T16:55:42.808Z,20.20
2022-07-30T16:58:10.758Z,20.40
2022-07-30T17:00:38.013Z,20.70
2022-07-30T17:03:05.137Z,20.80
2022-07-30T17:05:32.198Z,21.10
2022-07-30T17:07:59.216Z,21.30
2022-07-30T17:10:26.731Z,21.40
2022-07-30T17:12:57.030Z,21.40
2022-07-30T17:15:32.503Z,21.50
2022-07-30T17:18:01.647Z,21.50
2022-07-30T17:20:30.161Z,21.60
2022-07-30T17:22:57.443Z,21.60
2022-07-30T17:25:28.421Z,21.50
2022-07-30T17:27:57.184Z,21.60
2022-07-30T17:30:26.643Z,21.50
2022-07-30T17:32:53.778Z,21.60
2022-07-30T17:35:21.059Z,21.70
2022-07-30T17:37:48.136Z,21.60
2022-07-30T17:40:28.885Z,21.60
2022-07-30T17:43:04.323Z,21.50
2022-07-30T17:45:36.369Z,21.40
2022-07-30T17:48:05.174Z,21.30
2022-07-30T17:50:32.602Z,21.30
2022-07-30T17:53:03.605Z,21.20
2022-07-30T17:55:31.968Z,21.10
2022-07-30T17:57:58.949Z,21.10
2022-07-30T18:00:26.138Z,21.00
2022-07-30T18:02:53.211Z,21.00
2022-07-30T18:05:20.292Z,20.90
2022-07-30T18:07:47.248Z,20.90
2022-07-30T18:10:14.440Z,20.90
2022-07-30T18:12:49.081Z,20.80
2022-07-30T18:15:18.521Z,20.80
2022-07-30T18:17:45.935Z,20.80
2022-07-30T18:20:13.857Z,20.80
2022-07-30T18:22:41.021Z,20.70
2022-07-30T18:25:18.920Z,20.70
2022-07-30T18:27:47.136Z,20.60
2022-07-30T18:30:14.765Z,20.60
2022-07-30T18:32:41.767Z,20.60
2022-07-30T18:35:13.792Z,20.50
2022-07-30T18:37:42.162Z,20.50
2022-07-30T18:40:10.838Z,20.50
2022-07-30T18:42:37.810Z,20.40
2022-07-30T18:45:05.370Z,20.40
2022-07-30T18:47:32.421Z,20.30
2022-07-30T18:49:59.507Z,20.30
2022-07-30T18:52:26.696Z,20.20
2022-07-30T18:54:53.847Z,20.20
2022-07-30T18:57:20.959Z,20.10
2022-07-30T18:59:48.023Z,20.00
2022-07-30T19:02:15.069Z,19.90
2022-07-30T19:04:42.086Z,19.90
2022-07-30T19:07:09.190Z,19.80
2022-07-30T19:09:36.383Z,19.80
2022-07-30T19:12:06.215Z,19.80
2022-07-30T19:14:33.651Z,19.70
2022-07-30T19:17:00.664Z,19.60
2022-07-30T19:19:27.912Z,19.60
2022-07-30T19:21:55.099Z,19.60
2022-07-30T19:24:22.282Z,19.60
2022-07-30T19:26:49.359Z,19.50
2022-07-30T19:29:16.865Z,19.50
2022-07-30T19:31:43.914Z,19.60
2022-07-30T19:34:11.305Z,19.50
2022-07-30T19:36:39.658Z,19.60
2022-07-30T19:39:08.695Z,19.50
2022-07-30T19:41:40.775Z,19.50
2022-07-30T19:44:10.533Z,19.50
2022-07-30T19:46:37.865Z,19.50
2022-07-30T19:49:06.628Z,19.50
2022-07-30T19:52:10.054Z,19.40
2022-07-30T19:54:21.275Z,19.40
2022-07-30T19:56:49.218Z,19.40
2022-07-30T19:59:18.327Z,19.40
2022-07-30T20:01:45.317Z,19.30
2022-07-30T20:04:18.817Z,19.30
2022-07-30T20:06:46.259Z,19.20
2022-07-30T20:09:14.971Z,19.20
2022-07-30T20:11:43.321Z,19.10
2022-07-30T20:14:10.602Z,19.10
2022-07-30T20:16:37.800Z,19.10
2022-07-30T20:19:05.672Z,19.10
2022-07-30T20:21:56.889Z,19.10
2022-07-30T20:24:21.057Z,19.00
2022-07-30T20:26:48.322Z,19.00
2022-07-30T20:29:18.953Z,19.00
2022-07-30T20:31:46.824Z,19.00
2022-07-30T20:34:18.348Z,19.10
2022-07-30T20:36:45.334Z,19.00
2022-07-30T20:39:18.195Z,19.00
2022-07-30T20:41:45.721Z,19.10
2022-07-30T20:44:23.122Z,19.10
2022-07-30T20:46:50.709Z,19.10
2022-07-30T20:49:24.201Z,19.20
2022-07-30T20:52:02.878Z,19.10
2022-07-30T20:54:30.403Z,19.20
2022-07-30T20:56:57.641Z,19.20
2022-07-30T20:59:25.199Z,19.20
2022-07-30T21:01:52.171Z,19.20
2022-07-30T21:04:23.794Z,19.30
2022-07-30T21:06:52.657Z,19.30
2022-07-30T21:09:20.366Z,19.30
2022-07-30T21:11:50.600Z,19.30
2022-07-30T21:14:20.233Z,19.30
2022-07-30T21:16:47.919Z,19.30
2022-07-30T21:19:17.672Z,19.20
2022-07-30T21:21:48.167Z,19.20
2022-07-30T21:24:19.404Z,19.20
2022-07-30T21:26:49.022Z,19.10
2022-07-30T21:29:16.849Z,19.10
2022-07-30T21:32:01.559Z,19.10
2022-07-30T21:34:35.922Z,19.10
2022-07-30T21:37:07.977Z,19.10
2022-07-30T21:39:39.874Z,19.10
2022-07-30T21:42:08.940Z,19.10
2022-07-30T21:44:37.548Z,19.10
2022-07-30T21:47:10.004Z,19.10
2022-07-30T21:49:38.367Z,19.00
2022-07-30T21:52:06.558Z,19.10
2022-07-30T21:54:45.220Z,19.10
2022-07-30T21:57:13.070Z,19.10
2022-07-30T21:59:40.871Z,19.00
2022-07-30T22:02:15.839Z,19.10
2022-07-30T22:04:54.940Z,19.00
2022-07-30T22:07:22.170Z,19.00
2022-07-30T22:09:49.490Z,19.00
2022-07-30T22:12:18.069Z,19.00
2022-07-30T22:14:46.930Z,19.00
2022-07-30T22:17:23.446Z,19.00
2022-07-30T22:19:51.979Z,18.90
2022-07-30T22:22:27.712Z,18.90
2022-07-30T22:24:57.326Z,18.90
2022-07-30T22:27:25.608Z,18.90
2022-07-30T22:29:55.620Z,18.80
2022-07-30T22:32:24.067Z,18.80
2022-07-30T22:34:52.947Z,18.80
2022-07-30T22:37:21.522Z,18.80
2022-07-30T22:39:50.502Z,18.70
2022-07-30T22:42:24.583Z,18.70
2022-07-30T22:44:52.877Z,18.60
2022-07-30T22:47:21.394Z,18.70
2022-07-30T22:50:08.236Z,18.60
2022-07-30T22:52:40.044Z,18.60
2022-07-30T22:55:22.109Z,18.60
2022-07-30T22:57:50.083Z,18.60
2022-07-30T23:00:27.434Z,18.60
2022-07-30T23:02:56.697Z,18.60
2022-07-30T23:05:24.255Z,18.60
2022-07-30T23:07:51.681Z,18.60
2022-07-30T23:10:21.236Z,18.60
2022-07-30T23:12:51.922Z,18.60
2022-07-30T23:15:20.013Z,18.70
2022-07-30T23:17:47.861Z,18.60
2022-07-30T23:20:17.699Z,18.70
2022-07-30T23:22:44.726Z,18.70
2022-07-30T23:25:13.374Z,18.60
2022-07-30T23:27:41.796Z,18.70
2022-07-30T23:30:10.984Z,18.70
2022-07-30T23:32:39.979Z,18.70
2022-07-30T23:35:09.041Z,18.60
2022-07-30T23:37:47.640Z,18.60
2022-07-30T23:40:16.726Z,18.50
2022-07-30T23:42:43.722Z,18.50
2022-07-30T23:45:11.266Z,18.50
2022-07-30T23:48:01.842Z,18.50
2022-07-30T23:50:25.598Z,18.50
2022-07-30T23:52:52.663Z,18.50
2022-07-30T23:55:19.702Z,18.40
2022-07-30T23:57:46.691Z,18.40
